createdAt,value
2022-10-15T00:06:24.926Z,0.00
2022-10-15T00:21:25.019Z,0.00
2022-10-15T00:36:26.139Z,0.00
2022-10-15T00:51:26.721Z,0.00
2022-10-15T01:06:26.332Z,0.00
2022-10-15T01:21:26.443Z,0.00
2022-10-15T01:36:27.792Z,0.00
2022-10-15T01:51:28.937Z,0.00
2022-10-15T02:06:29.509Z,0.00
2022-10-15T02:21:30.227Z,0.00
2022-10-15T02:36:30.715Z,0.00
2022-10-15T02:51:30.841Z,0.00
2022-10-15T03:06:30.955Z,0.00
2022-10-15T03:21:31.092Z,0.00
2022-10-15T03:36:31.617Z,0.00
2022-10-15T03:51:31.926Z,0.00
2022-10-15T04:06:32.859Z,0.00
2022-10-15T04:21:33.927Z,0.00
2022-10-15T04:36:34.557Z,0.00
2022-10-15T04:51:35.740Z,0.00
2022-10-15T05:06:36.224Z,4.00
2022-10-15T05:21:36.858Z,52.00
2022-10-15T05:36:37.983Z,260.00
2022-10-15T05:51:38.072Z,664.00
2022-10-15T06:06:38.628Z,1312.00
2022-10-15T06:21:38.751Z,2648.00
2022-10-15T06:36:38.826Z,1560.00
2022-10-15T06:51:39.957Z,1980.00
2022-10-15T07:06:39.555Z,1748.00
2022-10-15T07:21:39.653Z,3212.00
2022-10-15T07:36:39.744Z,4524.00
2022-10-15T07:51:40.362Z,5252.00
2022-10-15T08:06:39.977Z,3336.00
2022-10-15T08:21:42.793Z,4424.00
2022-10-15T08:36:45.721Z,9704.00
2022-10-15T08:51:46.775Z,10776.00
2022-10-15T09:06:46.409Z,11400.00
2022-10-15T09:21:46.490Z,17952.00
2022-10-15T09:36:47.865Z,18176.00
2022-10-15T09:52:50.842Z,12236.00
2022-10-15T10:07:51.077Z,9984.00
2022-10-15T10:22:52.431Z,11704.00
2022-10-15T10:37:53.799Z,14856.00
2022-10-15T10:52:54.473Z,12856.00
2022-10-15T11:07:56.770Z,36000.00
2022-10-15T11:22:56.400Z,51136.00
2022-10-15T11:37:56.989Z,29344.00
2022-10-15T11:52:57.621Z,84224.00
2022-10-15T12:07:58.264Z,16736.00
2022-10-15T12:22:59.246Z,20672.00
2022-10-15T12:37:59.408Z,10840.00
2022-10-15T12:53:00.541Z,6084.00
2022-10-15T13:08:01.123Z,6132.00
2022-10-15T13:23:06.930Z,11820.00
2022-10-15T13:38:06.890Z,10420.00
2022-10-15T13:53:07.444Z,19552.00
2022-10-15T14:08:07.571Z,9892.00
2022-10-15T14:23:09.414Z,2960.00
2022-10-15T14:38:10.809Z,3832.00
2022-10-15T14:53:10.975Z,5920.00
2022-10-15T15:08:12.102Z,3788.00
2022-10-15T15:23:12.687Z,2532.00
2022-10-15T15:38:12.814Z,2008.00
2022-10-15T15:53:12.897Z,1080.00
2022-10-15T16:08:13.531Z,376.00
2022-10-15T18:16:17.167Z,0.00
2022-10-15T18:31:17.969Z,0.00
2022-10-15T18:46:19.308Z,0.00
2022-10-15T19:01:22.292Z,0.00
2022-10-15T19:16:25.212Z,0.00
2022-10-15T19:31:27.050Z,0.00
2022-10-15T19:46:28.476Z,0.00
2022-10-15T20:01:29.609Z,0.00
2022-10-15T20:16:33.102Z,0.00
2022-10-15T20:31:33.529Z,0.00
2022-10-15T20:46:33.915Z,0.00
2022-10-15T21:01:34.552Z,0.00
2022-10-15T21:16:34.565Z,0.00
2022-10-15T21:31:34.722Z,0.00
2022-10-15T21:46:34.839Z,0.00
2022-10-15T22:01:35.003Z,0.00
2022-10-15T22:16:36.320Z,0.00
2022-10-15T22:31:36.435Z,0.00
2022-10-15T22:46:36.974Z,0.00
2022-10-15T23:01:37.655Z,0.00
2022-10-15T23:16:38.170Z,0.00
2022-10-15T23:31:37.769Z,0.00
2022-10-15T23:46:37.885Z,0.00
